Alorton, Illinois
Current Conditions -  °F | °C
As of 3:53 PM on Tuesday 25 Nov 2014 (Local Time) from KCPS Reporting Station
Clear Clear  
Wind Chill: 37°   Ceiling: Unl
Heat Index: 41°   Visibility: 10mi
Dew Point: 23°   Wind: 6mph
Humidity: 49%   Direction: 300°WNW
Pressure: 30.15"   Gusts: NA
Location:  38.5841°N, 90.126°W
Report Text: KCPS 252153Z 30005KT 10SM CLR 05/M05 A3015 RMK AO2 SLP212 T00501050
Loading
Personal Weather Stations






























Interactive Weather Map New forecast layout! Learn more

10-Day Weather Forecast

Advertisements
Track Severe Weather on mobile